x

West Oregon - 275nm West Of Coos Bay, Or (46002) Weather Station

8:30pm - Fri 17th Nov 2017 All times are UTC.

  • Wind
    7mph, 11mph gusts
  • Air Temp 54°f
  • Sea Pressure 1024.3mb

More Historic Weather Station data

Upgrade to MSW Pro to gain access to the past 30 days of data for over 8000 Wavebouys and Weather Stations around the globe.

Join

Comparision Forecast

View Surf forecast
   
Fri 11/17 8:30pm  -   -   -  7 11 mph 1024.3mb 54f
8:20pm  -   -   -  7 9 mph 1024.3mb 54f
8:10pm  -   -   -  7 9 mph 1024.4mb 54f
8:00pm  -   -   -  7 9 mph 1024.4mb 54f
7:50pm 6.5ft 9s 7s 7 11 mph 1024.5mb 54f
7:40pm 6.5ft  -  7s 7 11 mph 1024.4mb 54f
7:30pm  -   -   -  7 11 mph 1024.4mb 54f
7:20pm  -   -   -  7 9 mph 1024.3mb 54f
7:10pm  -   -   -  4 9 mph 1024.2mb 54f
7:00pm  -   -   -  4 9 mph 1024.2mb 54f
6:50pm 6ft 9s 7s 4 7 mph 1024.1mb 54f
6:40pm  -   -   -  4 7 mph 1024mb 54f
6:30pm  -   -   -  4 7 mph 1023.9mb 54f
6:20pm  -   -   -  4 7 mph 1023.7mb 54f
6:10pm  -   -   -  4 7 mph 1023.7mb 54f
6:00pm  -   -   -  4 7 mph 1023.7mb 54f
5:50pm 7ft 10s 7s 4 7 mph 1023.6mb 54f
5:40pm  -   -   -  4 7 mph 1023.5mb 54f
5:30pm  -   -   -  2 4 mph 1023.4mb 54f
5:20pm  -   -   -  2 7 mph 1023.2mb 54f
5:10pm  -   -   -  4 7 mph 1023.1mb 53f
5:00pm  -   -   -  4 7 mph 1023.1mb 53f
4:50pm 7ft 10s 7s 4 9 mph 1023mb 53f
4:40pm  -   -   -  7 9 mph 1022.9mb 53f
4:30pm  -   -   -  7 9 mph 1022.8mb 53f
4:20pm  -   -   -  7 9 mph 1022.7mb 53f
4:10pm  -   -   -  7 11 mph 1022.6mb 53f
4:00pm  -   -   -  9 13 mph 1022.4mb 52f
3:50pm 7ft 10s 7s 11 16 mph 1022.3mb 52f
3:40pm 7ft  -  7s 9 16 mph 1022.1mb 52f
3:30pm  -   -   -  7 11 mph 1022mb 52f
3:20pm  -   -   -  9 13 mph 1021.8mb 52f
3:10pm  -   -   -  9 13 mph 1021.6mb 52f
3:00pm  -   -   -  13 20 mph 1021.5mb 53f
2:50pm 7ft 10s 7s 7 13 mph 1021.3mb 54f
2:40pm 7ft  -  7s 9 13 mph 1021.1mb 54f
2:30pm  -   -   -  9 13 mph 1021mb 54f
2:20pm  -   -   -  9 13 mph 1020.9mb 54f
2:10pm  -   -   -  9 13 mph 1020.9mb 53f
2:00pm  -   -   -  7 13 mph 1020.9mb 53f
1:50pm 7ft 10s 7s 11 13 mph 1020.7mb 54f
1:40pm 7ft  -  7s 9 13 mph 1020.6mb 54f
1:30pm  -   -   -  9 13 mph 1020.6mb 54f
1:20pm  -   -   -  9 13 mph 1020.4mb 54f
1:10pm  -   -   -  9 11 mph 1020.3mb 54f
1:00pm  -   -   -  9 11 mph 1020.2mb 53f
12:50pm 7ft 9s 7s 9 11 mph 1020.1mb 53f
12:40pm  -   -   -  7 11 mph 1019.9mb 53f
12:30pm  -   -   -  9 13 mph 1019.9mb 53f
12:20pm  -   -   -  11 13 mph 1019.9mb -
12:10pm  -   -   -  9 13 mph 1019.8mb 53f
12:00pm  -   -   -  11 16 mph 1019.7mb 53f
11:50am 8ft 10s 7s 11 16 mph 1019.7mb 53f
11:40am 8ft  -  7s 9 16 mph 1019.6mb 53f
11:30am  -   -   -  11 16 mph 1019.4mb 53f
11:20am  -   -   -  9 13 mph 1019.4mb 53f
11:10am  -   -   -  11 13 mph 1019.3mb 53f
11:00am  -   -   -  11 16 mph 1019.2mb 53f
10:50am 8ft 9s 7s 11 13 mph 1019.1mb 53f
10:40am 8ft  -  7s 11 16 mph 1019mb 53f
10:30am  -   -   -  11 18 mph 1018.9mb 53f
10:20am  -   -   -  11 16 mph 1018.8mb 53f
10:10am  -   -   -  11 16 mph 1018.6mb 53f
10:00am  -   -   -  9 13 mph 1018.5mb 53f
9:50am 8ft 9s 7s 11 16 mph 1018.5mb 53f
9:40am 8ft  -  7s 11 16 mph 1018.3mb 53f
9:30am  -   -   -  11 13 mph 1018.2mb 53f
9:20am  -   -   -  9 16 mph 1018.1mb 53f
9:10am  -   -   -  9 13 mph 1018mb 53f
9:00am  -   -   -  9 13 mph 1017.9mb 53f
8:50am 8ft 10s 7s 9 13 mph 1017.7mb 53f
8:40am  -   -   -  9 13 mph 1017.6mb 53f
8:30am  -   -   -  9 16 mph 1017.4mb 53f
8:20am  -   -   -  9 13 mph 1017.2mb 53f
8:10am  -   -   -  9 13 mph 1017.1mb 53f
8:00am  -   -   -  9 13 mph 1016.9mb 53f
7:50am 8ft 9s 7s 11 13 mph 1016.7mb 53f
7:40am  -   -   -  11 16 mph 1016.6mb 53f
7:30am  -   -   -  11 16 mph 1016.5mb 53f
7:20am  -   -   -  11 16 mph 1016.4mb 53f
7:10am  -   -   -  11 16 mph 1016.2mb 53f
7:00am  -   -   -  11 16 mph 1016.2mb 53f
6:50am 7.5ft 10s 7s 13 18 mph 1016.2mb 53f
6:40am 7.5ft  -  7s 13 18 mph 1016mb 53f
6:30am  -   -   -  13 20 mph 1015.9mb 53f
6:20am  -   -   -  13 18 mph 1015.8mb 53f
6:10am  -   -   -  13 18 mph 1015.6mb 53f
6:00am  -   -   -  16 20 mph 1015.4mb 53f
5:50am 7.5ft 11s 7s 16 20 mph 1015.1mb 53f
5:40am  -   -   -  16 20 mph 1015mb 53f
5:30am  -   -   -  13 22 mph 1014.8mb 53f
5:20am  -   -   -  16 20 mph 1014.7mb 53f
5:10am  -   -   -  13 20 mph 1014.6mb 53f
5:00am  -   -   -  7 16 mph 1014.4mb 52f
4:50am 7.5ft 10s 7s 4 9 mph 1014.4mb 52f
4:40am 7.5ft  -  7s 4 9 mph 1014.2mb 51f
4:30am  -   -   -  9 13 mph 1014mb 51f
4:20am  -   -   -  16 27 mph 1013.9mb 51f
4:10am  -   -   -  11 25 mph 1013.6mb 53f
4:00am  -   -   -  11 16 mph 1013.5mb 53f
3:50am 7ft 11s 7s 7 11 mph 1013.4mb 53f
3:40am 7ft  -  7s 7 13 mph 1013.3mb 52f
3:30am  -   -   -  7 11 mph 1013.1mb 52f
3:20am  -   -   -  9 13 mph 1012.9mb 52f
3:10am  -   -   -  7 11 mph 1012.8mb 52f
3:00am  -   -   -  7 11 mph 1012.7mb 52f
2:50am 7.5ft 11s 7s 7 11 mph 1012.5mb 52f
2:40am  -   -   -  9 13 mph 1012.4mb 52f
2:30am  -   -   -  9 13 mph 1012.2mb 51f
2:20am  -   -   -  9 13 mph 1012.1mb 51f
2:10am  -   -   -  11 16 mph 1011.9mb 52f
2:00am  -   -   -  11 18 mph 1011.8mb 52f
1:50am 8ft 11s 7s 13 18 mph 1011.6mb 52f
1:40am 8ft  -  7s 11 16 mph 1011.5mb 52f
1:30am  -   -   -  13 18 mph 1011.4mb 52f
1:20am  -   -   -  13 18 mph 1011.2mb 52f
1:10am  -   -   -  13 18 mph 1011.2mb -
1:00am  -   -   -  13 18 mph 1011mb 52f
12:50am 8.5ft 11s 7s 13 20 mph 1010.8mb 52f
12:40am 8.5ft  -  7s 16 20 mph 1010.6mb 52f
12:30am  -   -   -  13 18 mph 1010.5mb 52f
12:20am  -   -   -  16 20 mph 1010.3mb 52f
12:10am  -   -   -  11 16 mph 1010.2mb 52f
12:00am  -   -   -  16 20 mph 1010.1mb 52f
Thu 11/16 11:50pm 9ft 11s 7s 16 20 mph 1010mb 52f
11:40pm  -   -   -  16 20 mph 1009.8mb 52f
11:30pm  -   -   -  13 20 mph 1009.7mb 52f
11:20pm  -   -   -  13 20 mph 1009.7mb 51f
11:10pm  -   -   -  13 18 mph 1009.5mb 51f
11:00pm  -   -   -  13 18 mph 1009.4mb 51f
10:50pm 9ft 11s 7s 18 22 mph 1009.3mb 51f
10:40pm  -   -   -  18 22 mph 1009.2mb 51f
10:30pm  -   -   -  16 22 mph 1009.1mb 51f
10:20pm  -   -   -  13 20 mph 1009mb 51f
10:10pm  -   -   -  16 22 mph 1008.8mb 52f
10:00pm  -   -   -  18 25 mph 1008.8mb 51f
9:50pm 10ft 11s 8s 18 22 mph 1008.8mb 51f
9:40pm 10ft  -  8s 18 22 mph 1008.7mb 51f
9:30pm  -   -   -  16 20 mph 1008.7mb 51f
9:20pm  -   -   -  11 18 mph 1008.7mb 51f
9:10pm  -   -   -  9 16 mph 1008.7mb 50f
9:00pm  -   -   -  7 11 mph 1008.7mb 50f
8:50pm 9.5ft 11s 7s 4 9 mph 1008.7mb 50f
8:40pm 9.5ft  -  7s 4 7 mph 1008.7mb 49f
8:30pm  -   -   -  4 9 mph 1008.8mb 49f
8:20pm  -   -   -  2 4 mph 1008.8mb 49f
8:10pm  -   -   -  2 7 mph 1008.8mb 48f
8:00pm  -   -   -  4 7 mph 1008.9mb 48f
7:50pm 10ft 11s 7s 7 18 mph 1009.1mb 47f
7:40pm 10ft  -  7s 18 27 mph 1009.1mb 48f
7:30pm  -   -   -  16 22 mph 1009mb 49f
7:20pm  -   -   -  20 25 mph 1008.8mb 50f
7:10pm  -   -   -  18 27 mph 1008.5mb 50f
7:00pm  -   -   -  13 27 mph 1008.4mb 50f
6:50pm 10ft 12s 7s 9 13 mph 1008.3mb 50f
6:40pm  -   -   -  13 20 mph 1008.1mb 50f
6:30pm  -   -   -  11 16 mph 1008mb 50f
6:20pm  -   -   -  11 20 mph 1007.9mb 51f
6:10pm  -   -   -  13 18 mph 1007.8mb 51f
6:00pm  -   -   -  13 22 mph 1007.8mb 51f
5:50pm 10ft 11s 7s 16 20 mph 1007.8mb 51f
5:40pm  -   -   -  16 20 mph 1007.8mb 51f
5:30pm  -   -   -  16 20 mph 1007.6mb 51f
5:20pm  -   -   -  13 18 mph 1007.5mb 51f
5:10pm  -   -   -  13 18 mph 1007.4mb 51f
5:00pm  -   -   -  13 18 mph 1007.2mb -
4:50pm 10.5ft 10s 7s 13 18 mph 1007.1mb 50f
4:40pm  -   -   -  16 20 mph 1007.1mb 50f
4:30pm  -   -   -  16 22 mph 1007mb 49f
4:20pm  -   -   -  22 31 mph 1006.8mb 50f
4:10pm  -   -   -  27 34 mph 1006.6mb 50f
4:00pm  -   -   -  27 36 mph 1006.7mb 51f
3:50pm 10ft 10s 7s 20 27 mph 1006.5mb 52f
3:40pm  -   -   -  20 25 mph 1006.4mb 52f
3:30pm  -   -   -  20 25 mph 1006.3mb 52f
3:20pm  -   -   -  20 27 mph 1006.1mb 52f
3:10pm  -   -   -  20 25 mph 1006mb 52f
3:00pm  -   -   -  20 27 mph 1006mb 52f
2:50pm 10ft 10s 7s 20 27 mph 1005.9mb 52f
2:40pm  -   -   -  20 27 mph 1005.9mb 52f
2:30pm  -   -   -  20 25 mph 1005.8mb 52f
2:20pm  -   -   -  20 25 mph 1005.8mb 52f
2:10pm  -   -   -  13 18 mph 1005.8mb 52f
2:00pm  -   -   -  13 18 mph 1006mb 51f
1:50pm 10.5ft 11s 8s 13 18 mph 1006mb 51f
1:40pm  -   -   -  13 18 mph 1006mb 51f
1:30pm  -   -   -  16 20 mph 1006.1mb 51f
1:20pm  -   -   -  18 22 mph 1006mb 51f
1:10pm  -   -   -  20 27 mph 1005.9mb 51f
1:00pm  -   -   -  22 29 mph 1005.5mb -
12:50pm 10ft 11s 7s 20 29 mph 1005.6mb 52f
12:40pm 10ft  -  7s 20 25 mph 1005.7mb 52f
12:30pm  -   -   -  18 22 mph 1005.7mb 51f
12:20pm  -   -   -  18 22 mph 1005.7mb 51f
12:10pm  -   -   -  18 27 mph 1005.7mb 51f
12:00pm  -   -   -  22 29 mph 1005.6mb 52f
11:50am 11ft 11s 7s 18 25 mph 1005.5mb 53f
11:40am  -   -   -  20 25 mph 1005.4mb 53f
11:30am  -   -   -  20 29 mph 1005.6mb 53f
11:20am  -   -   -  22 27 mph 1005.6mb 53f
11:10am  -   -   -  22 29 mph 1005.7mb 53f
11:00am  -   -   -  20 27 mph 1005.7mb 53f
10:50am 10ft 12s 7s 20 27 mph 1005.7mb 53f
10:40am 10ft  -  7s 20 27 mph 1005.7mb 53f
10:30am  -   -   -  18 25 mph 1005.6mb 52f
10:20am  -   -   -  13 18 mph 1005.5mb 51f
10:10am  -   -   -  16 25 mph 1005.6mb 51f
10:00am  -   -   -  18 25 mph 1005.7mb 51f
9:50am 10ft 12s 7s 22 29 mph 1005.7mb 52f
9:40am 10ft  -  7s 20 27 mph 1005.5mb 52f
9:30am  -   -   -  22 29 mph 1005.5mb 51f
9:20am  -   -   -  25 34 mph 1005.5mb 53f
9:10am  -   -   -  22 29 mph 1005.5mb 53f
9:00am  -   -   -  22 27 mph 1005.5mb 53f
8:50am 11ft 11s 8s 20 27 mph 1005.4mb 53f
8:40am  -   -   -  18 25 mph 1005.4mb 52f
8:30am  -   -   -  18 25 mph 1005.4mb 52f
8:20am  -   -   -  18 22 mph 1005.4mb 52f
8:10am  -   -   -  18 25 mph 1005.3mb 52f
8:00am  -   -   -  20 27 mph 1005.3mb 52f
7:50am 11ft 11s 7s 20 25 mph 1005.4mb 51f
7:40am 11ft  -  7s 20 27 mph 1005.3mb 51f
7:30am  -   -   -  22 29 mph 1005.3mb 51f
7:20am  -   -   -  29 36 mph 1005.3mb 52f
7:10am  -   -   -  27 36 mph 1005.2mb 53f
7:00am  -   -   -  20 27 mph 1005mb 53f
6:50am 11ft 11s 8s 20 25 mph 1005.1mb 53f
6:40am 11ft  -  8s 20 25 mph 1005.2mb 53f
6:30am  -   -   -  20 27 mph 1005.1mb 53f
6:20am  -   -   -  20 25 mph 1005mb 53f
6:10am  -   -   -  20 27 mph 1004.9mb 53f
6:00am  -   -   -  20 27 mph 1004.8mb 53f
5:50am 11ft 11s 7s 20 25 mph 1004.8mb 53f
5:40am 11ft  -  7s 20 25 mph 1004.8mb 53f
5:30am  -   -   -  20 27 mph 1004.7mb 53f
5:20am  -   -   -  20 29 mph 1004.7mb 52f
5:10am  -   -   -  25 31 mph 1004.6mb 53f
5:00am  -   -   -  22 27 mph 1004.4mb 54f
4:50am 11ft 13s 8s 20 29 mph 1004.4mb 54f
4:40am  -   -   -  20 27 mph 1004.3mb 53f
4:30am  -   -   -  22 31 mph 1004.3mb 53f
4:20am  -   -   -  22 29 mph 1004.3mb 54f
4:10am  -   -   -  20 27 mph 1004.2mb 54f
4:00am  -   -   -  18 27 mph 1004.1mb 53f
3:50am 11ft 12s 8s 18 25 mph 1004.2mb 53f
3:40am 11ft  -  8s 18 22 mph 1004.2mb 52f
3:30am  -   -   -  22 31 mph 1004.2mb 52f
3:20am  -   -   -  18 25 mph 1004.1mb 53f
3:10am  -   -   -  16 20 mph 1004mb 53f
3:00am  -   -   -  16 22 mph 1004mb 53f
2:50am 11.5ft 12s 8s 16 22 mph 1003.9mb 53f
2:40am 11.5ft  -  8s 18 22 mph 1003.9mb 52f
2:30am  -   -   -  18 22 mph 1003.9mb 52f
2:20am  -   -   -  13 18 mph 1003.9mb 51f
2:10am  -   -   -  16 22 mph 1003.9mb 51f
2:00am  -   -   -  20 27 mph 1003.9mb 51f
1:50am 13ft 11s 8s 20 29 mph 1003.8mb 52f
1:40am  -   -   -  20 27 mph 1003.5mb 52f
1:30am  -   -   -  20 25 mph 1003.5mb 52f
1:20am  -   -   -  20 25 mph 1003.6mb 53f
1:10am  -   -   -  20 27 mph 1003.5mb 53f
1:00am  -   -   -  22 27 mph 1003.5mb 53f
12:50am 11.5ft 11s 7s 22 29 mph 1003.5mb 52f
12:40am 11.5ft  -  7s 20 25 mph 1003.5mb 52f
12:30am  -   -   -  25 31 mph 1003.5mb 52f
12:20am  -   -   -  20 31 mph 1003.4mb 52f
12:10am  -   -   -  16 20 mph 1003.5mb 52f
12:00am  -   -   -  18 27 mph 1003.5mb 53f
Wed 11/15 11:50pm 13.5ft 12s 8s 18 25 mph 1003.5mb 53f
11:40pm 13.5ft  -  8s 16 25 mph 1003.4mb 52f
11:20pm  -   -   -  18 22 mph 1003.5mb 53f
11:10pm  -   -   -  16 22 mph 1003.5mb 53f
11:00pm  -   -   -  16 22 mph 1003.7mb 53f
10:50pm 12.5ft 11s 8s 16 22 mph 1003.7mb 53f
10:40pm 12.5ft  -  8s 16 20 mph 1003.8mb 53f
10:30pm  -   -   -  13 18 mph 1003.9mb 52f
10:20pm  -   -   -  13 20 mph 1003.9mb 52f
10:10pm  -   -   -  13 20 mph 1004.1mb 52f
10:00pm  -   -   -  13 20 mph 1004.1mb 51f
9:50pm 12.5ft 11s 8s 13 18 mph 1004.3mb 51f
9:40pm 12.5ft  -  8s 18 22 mph 1004.3mb 50f
9:30pm  -   -   -  20 31 mph 1004.3mb 49f
9:20pm  -   -   -  25 34 mph 1004.5mb 51f
9:10pm  -   -   -  18 27 mph 1004.2mb 53f
9:00pm  -   -   -  18 22 mph 1004.2mb 53f
8:50pm 13ft 12s 8s 20 25 mph 1004.4mb 53f
8:40pm  -   -   -  20 25 mph 1004.5mb 53f
8:30pm  -   -   -  18 25 mph 1004.6mb 53f
8:20pm  -   -   -  18 25 mph 1004.7mb 53f
8:10pm  -   -   -  18 22 mph 1004.9mb 53f
8:00pm  -   -   -  18 27 mph 1005mb 53f
7:50pm 12ft 11s 8s 18 22 mph 1005.2mb 53f
7:40pm 12ft  -  8s 20 25 mph 1005.3mb 52f
7:30pm  -   -   -  22 29 mph 1005.4mb 52f
7:20pm  -   -   -  22 27 mph 1005.5mb 53f
7:10pm  -   -   -  20 25 mph 1005.5mb 53f
7:00pm  -   -   -  18 25 mph 1005.5mb 53f
6:50pm 12ft 10s 8s 20 27 mph 1005.6mb 53f
6:40pm 12ft  -  8s 18 25 mph 1005.6mb 53f
6:30pm  -   -   -  16 22 mph 1005.6mb 53f
6:20pm  -   -   -  18 22 mph 1005.6mb 52f
6:10pm  -   -   -  18 25 mph 1005.6mb 52f
6:00pm  -   -   -  20 27 mph 1005.7mb 52f
5:50pm 11.5ft 11s 8s 16 27 mph 1005.6mb 52f
5:40pm 11.5ft  -  8s 16 22 mph 1005.7mb 51f
5:30pm  -   -   -  20 29 mph 1005.7mb 53f
5:20pm  -   -   -  18 22 mph 1005.6mb 53f
5:10pm  -   -   -  20 25 mph 1005.5mb 53f
5:00pm  -   -   -  11 22 mph 1005.6mb 52f
4:50pm 12ft 13s 8s 16 27 mph 1005.9mb 52f
4:40pm 12ft  -  8s 16 22 mph 1005.8mb 53f
4:30pm  -   -   -  16 22 mph 1005.8mb 53f
4:20pm  -   -   -  16 22 mph 1005.7mb 53f
4:10pm  -   -   -  18 22 mph 1005.6mb 52f
4:00pm  -   -   -  16 20 mph 1005.7mb 52f
3:50pm 13ft 12s 8s 20 31 mph 1005.7mb 52f
3:40pm 13ft  -  8s 18 25 mph 1005.7mb 53f
3:30pm  -   -   -  20 27 mph 1005.7mb 53f
3:20pm  -   -   -  20 27 mph 1005.7mb 53f
3:10pm  -   -   -  18 25 mph 1005.7mb 53f
3:00pm  -   -   -  18 22 mph 1005.8mb 53f
2:50pm 12.5ft 13s 8s 18 20 mph 1005.8mb 53f
2:40pm 12.5ft  -  8s 18 25 mph 1006mb 53f
2:30pm  -   -   -  20 25 mph 1006.1mb 53f
2:20pm  -   -   -  18 25 mph 1006.2mb 53f
2:10pm  -   -   -  20 27 mph 1006.2mb 53f
2:00pm  -   -   -  22 29 mph 1006.3mb 53f
1:50pm 11ft 12s 7s 18 25 mph 1006.3mb 53f
1:40pm 11ft  -  7s 20 25 mph 1006.3mb 53f
1:30pm  -   -   -  22 29 mph 1006.4mb 54f
1:20pm  -   -   -  20 25 mph 1006.4mb 53f
1:10pm  -   -   -  20 27 mph 1006.5mb 53f
1:00pm  -   -   -  22 27 mph 1006.4mb 54f
12:50pm 13.5ft 12s 8s 20 27 mph 1006.5mb 54f
12:40pm  -   -   -  22 27 mph 1006.5mb 54f
12:30pm  -   -   -  22 29 mph 1006.4mb 54f
12:20pm  -   -   -  22 29 mph 1006.5mb 54f
12:10pm  -   -   -  22 29 mph 1006.6mb 54f
12:00pm  -   -   -  22 27 mph 1006.6mb 54f
11:50am 13ft 11s 8s 22 27 mph 1006.7mb 54f
11:40am 13ft  -  8s 22 27 mph 1006.7mb 53f
11:30am  -   -   -  22 27 mph 1006.8mb 53f
11:20am  -   -   -  22 27 mph 1006.8mb 53f
11:10am  -   -   -  22 29 mph 1006.9mb 53f
11:00am  -   -   -  22 31 mph 1006.8mb 54f
10:50am 13.5ft 13s 8s 22 29 mph 1006.8mb 54f
10:40am  -   -   -  20 25 mph 1006.8mb 54f
10:30am  -   -   -  20 27 mph 1006.8mb 54f
10:20am  -   -   -  20 27 mph 1006.8mb 54f
10:10am  -   -   -  20 27 mph 1006.9mb 54f
10:00am  -   -   -  25 31 mph 1006.9mb 53f
9:50am 13.5ft 12s 8s 27 36 mph 1007mb 53f
9:40am  -   -   -  25 36 mph 1007mb 54f
9:30am  -   -   -  22 29 mph 1007mb 55f
9:20am  -   -   -  22 29 mph 1007mb 55f
9:10am  -   -   -  22 29 mph 1007.1mb 55f
9:00am  -   -   -  22 27 mph 1007.1mb 54f
8:50am 15ft 12s 8s 22 27 mph 1007.2mb 54f
8:40am 15ft  -  8s 22 27 mph 1007.2mb 55f
8:30am  -   -   -  22 31 mph 1007.2mb 54f
8:20am  -   -   -  22 29 mph 1007.3mb 54f
8:10am  -   -   -  22 29 mph 1007.4mb 54f
8:00am  -   -   -  22 29 mph 1007.3mb 54f
7:50am 14ft 11s 8s 22 31 mph 1007.4mb 54f
7:40am 14ft  -  8s 22 29 mph 1007.3mb 54f
7:30am  -   -   -  22 29 mph 1007.2mb 54f
7:20am  -   -   -  22 29 mph 1007.2mb 55f
7:10am  -   -   -  25 29 mph 1007.2mb 55f
7:00am  -   -   -  22 29 mph 1007.2mb 55f
6:50am 13ft 10s 7s 22 29 mph 1007.3mb 55f
6:40am 13ft  -  7s 22 29 mph 1007.4mb 55f
6:30am  -   -   -  25 31 mph 1007.3mb 55f
6:20am  -   -   -  22 29 mph 1007.3mb 55f
6:10am  -   -   -  25 29 mph 1007.3mb 55f
6:00am  -   -   -  22 29 mph 1007.2mb 55f
5:50am 13ft 9s 7s 25 31 mph 1007mb 55f
5:40am 13ft  -  7s 22 29 mph 1007mb 55f
5:30am  -   -   -  22 29 mph 1007mb 54f
5:20am  -   -   -  22 29 mph 1007.1mb 54f
5:10am  -   -   -  20 27 mph 1007.2mb 54f
5:00am  -   -   -  22 31 mph 1007.2mb 53f
4:50am 15.5ft 11s 8s 25 34 mph 1007.2mb 55f
4:40am 15.5ft  -  8s 25 31 mph 1007.1mb 55f
4:30am  -   -   -  25 31 mph 1007mb 55f
4:20am  -   -   -  25 31 mph 1007.1mb 55f
4:10am  -   -   -  25 31 mph 1007.1mb 54f
4:00am  -   -   -  27 36 mph 1007.1mb 54f
3:50am 15ft 9s 8s 25 36 mph 1007mb 55f
3:40am  -   -   -  25 31 mph 1007mb 54f
3:30am  -   -   -  25 29 mph 1007mb 54f
3:20am  -   -   -  25 31 mph 1007mb 54f
3:10am  -   -   -  27 34 mph 1006.9mb 53f
3:00am  -   -   -  29 38 mph 1006.9mb 56f
2:50am 14.5ft 11s 8s 25 31 mph 1006.5mb 56f
2:40am 14.5ft  -  8s 25 31 mph 1006.6mb 56f
2:30am  -   -   -  25 31 mph 1006.7mb 55f
2:20am  -   -   -  25 29 mph 1006.7mb 54f
2:10am  -   -   -  27 34 mph 1006.7mb 54f
2:00am  -   -   -  29 38 mph 1006.8mb 55f
1:50am 14.5ft 10s 7s 34 43 mph 1006.8mb 55f
1:40am 14.5ft  -  7s 31 43 mph 1006.9mb 57f
1:30am  -   -   -  29 38 mph 1006.8mb 57f
1:20am  -   -   -  31 43 mph 1006.9mb 57f
1:10am  -   -   -  31 38 mph 1006.9mb -
1:00am  -   -   -  29 38 mph 1007.1mb 57f
12:50am 14ft 11s 8s 29 38 mph 1007.1mb 57f
12:40am  -   -   -  31 38 mph 1007.2mb 57f
12:30am  -   -   -  29 36 mph 1007.3mb 57f
12:20am  -   -   -  31 38 mph 1007.3mb 57f
12:10am  -   -   -  29 38 mph 1007.2mb 57f
12:00am  -   -   -  29 40 mph 1007.5mb 57f
Tue 11/14 11:50pm 14ft 10s 8s 29 43 mph 1007.6mb 57f
11:40pm 14ft  -  8s 29 38 mph 1007.7mb 57f
11:30pm  -   -   -  29 38 mph 1007.7mb 57f
11:20pm  -   -   -  29 36 mph 1008.1mb 57f
11:10pm  -   -   -  29 36 mph 1008.3mb 57f
11:00pm  -   -   -  27 34 mph 1008.4mb 56f
10:50pm 13ft 11s 7s 27 34 mph 1008.7mb 56f
10:40pm 13ft  -  7s 27 34 mph 1009mb 57f
10:30pm  -   -   -  25 34 mph 1009mb 56f
10:20pm  -   -   -  27 36 mph 1009.2mb 56f
10:10pm  -   -   -  29 38 mph 1009.3mb 56f
10:00pm  -   -   -  27 36 mph 1009.3mb 56f
9:50pm 13.5ft 11s 8s 22 29 mph 1009.3mb 57f
9:40pm  -   -   -  20 27 mph 1009.5mb 56f
9:30pm  -   -   -  22 27 mph 1009.6mb 56f
9:20pm  -   -   -  20 27 mph 1009.8mb 55f
9:10pm  -   -   -  25 34 mph 1010mb 56f
9:00pm  -   -   -  22 27 mph 1010.1mb 55f
8:50pm 13ft 9s 7s 25 34 mph 1010.3mb 54f
8:40pm 13ft  -  7s 22 29 mph 1010.7mb 55f
8:30pm  -   -   -  25 31 mph 1011mb 55f
8:20pm  -   -   -  25 31 mph 1011.1mb 56f
8:10pm  -   -   -  25 34 mph 1011.2mb 56f
8:00pm  -   -   -  25 31 mph 1011.4mb 56f
7:50pm 13.5ft 11s 7s 27 34 mph 1011.5mb 56f
7:40pm 13.5ft  -  7s 22 31 mph 1011.7mb 56f
7:30pm  -   -   -  25 34 mph 1011.9mb 56f
7:20pm  -   -   -  25 31 mph 1012mb 56f
7:10pm  -   -   -  25 34 mph 1012mb 55f
7:00pm  -   -   -  27 31 mph 1012mb 54f
6:50pm 15.5ft 11s 8s 29 38 mph 1012.4mb 54f
6:40pm 15.5ft  -  8s 29 38 mph 1012.3mb 54f
6:30pm  -   -   -  25 38 mph 1012.4mb 55f
6:20pm  -   -   -  25 38 mph 1012.4mb 57f
6:10pm  -   -   -  25 31 mph 1012.2mb 57f
6:00pm  -   -   -  22 29 mph 1012.3mb 56f
5:50pm 12ft 11s 7s 22 34 mph 1012.5mb 56f
5:40pm 12ft  -  7s 25 31 mph 1012.5mb 56f
5:30pm  -   -   -  25 31 mph 1012.8mb 56f
5:20pm  -   -   -  25 31 mph 1012.8mb 56f
5:10pm  -   -   -  25 34 mph 1012.8mb 56f
5:00pm  -   -   -  22 27 mph 1012.8mb 56f
4:50pm 14ft 11s 7s 22 27 mph 1012.8mb 55f
4:40pm 14ft  -  7s 27 34 mph 1012.9mb 55f
4:30pm  -   -   -  25 31 mph 1013.1mb 56f
4:20pm  -   -   -  27 34 mph 1013mb 57f
4:10pm  -   -   -  27 34 mph 1012.9mb 57f
4:00pm  -   -   -  25 34 mph 1012.9mb 57f
3:50pm 15ft 10s 8s 25 31 mph 1012.9mb 57f
3:40pm  -   -   -  25 31 mph 1013mb 57f
3:30pm  -   -   -  27 31 mph 1013mb 57f
3:20pm  -   -   -  27 36 mph 1013mb 57f
3:10pm  -   -   -  25 34 mph 1013mb 56f
3:00pm  -   -   -  25 31 mph 1013mb 56f
2:50pm 14ft 11s 7s 25 31 mph 1013.2mb 56f
2:40pm 14ft  -  7s 27 34 mph 1013.2mb 57f
2:30pm  -   -   -  27 34 mph 1013.2mb 57f
2:20pm  -   -   -  27 34 mph 1013.3mb 57f
2:10pm  -   -   -  29 36 mph 1013.3mb 57f
2:00pm  -   -   -  27 34 mph 1013.4mb 57f
1:50pm 16ft 11s 7s 29 38 mph 1013.4mb 57f
1:40pm 16ft  -  7s 29 40 mph 1013.6mb 57f
1:30pm  -   -   -  29 38 mph 1013.7mb 57f
1:20pm  -   -   -  29 36 mph 1013.8mb 57f
1:10pm  -   -   -  29 36 mph 1013.8mb 57f
1:00pm  -   -   -  29 36 mph 1013.7mb 57f
12:50pm 14.5ft 10s 7s 25 31 mph 1013.8mb 56f
12:40pm  -   -   -  29 36 mph 1013.8mb 57f
12:30pm  -   -   -  27 34 mph 1013.8mb 57f
12:20pm  -   -   -  29 36 mph 1013.9mb 57f
12:10pm  -   -   -  31 38 mph 1014mb 57f
12:00pm  -   -   -  27 36 mph 1014mb 57f
11:50am 13.5ft 11s 7s 25 31 mph 1014.1mb 56f
11:40am 13.5ft  -  7s 27 34 mph 1014.2mb 56f
11:30am  -   -   -  29 36 mph 1014.3mb 56f
11:20am  -   -   -  29 36 mph 1014.5mb 56f
11:10am  -   -   -  27 36 mph 1014.5mb 56f
11:00am  -   -   -  27 34 mph 1014.6mb 56f
10:50am 15.5ft 11s 8s 27 36 mph 1014.6mb 56f
10:40am  -   -   -  27 31 mph 1014.7mb 55f
10:30am  -   -   -  27 34 mph 1014.8mb 55f
10:20am  -   -   -  29 36 mph 1014.8mb 54f
10:10am  -   -   -  31 40 mph 1014.9mb 55f
10:00am  -   -   -  27 34 mph 1014.9mb 56f
9:50am 15ft 11s 8s 27 34 mph 1015mb 55f
9:40am  -   -   -  29 38 mph 1015.2mb 56f
9:30am  -   -   -  31 43 mph 1015.2mb 56f
9:20am  -   -   -  31 38 mph 1015.2mb 56f
9:10am  -   -   -  29 36 mph 1015.2mb 56f
9:00am  -   -   -  29 36 mph 1015.3mb 56f
8:50am 15.5ft 11s 8s 27 36 mph 1015.3mb 56f
8:40am 15.5ft  -  8s 27 36 mph 1015.4mb 55f
8:30am  -   -   -  29 38 mph 1015.4mb 55f
8:20am  -   -   -  27 34 mph 1015.6mb 55f
8:10am  -   -   -  27 36 mph 1015.4mb 56f
8:00am  -   -   -  29 38 mph 1015.3mb 56f
7:50am 15.5ft 12s 8s 27 36 mph 1015.4mb 56f
7:40am  -   -   -  27 36 mph 1015.5mb 56f
7:30am  -   -   -  29 36 mph 1015.5mb 55f
7:20am  -   -   -  25 34 mph 1015.5mb 53f
7:10am  -   -   -  27 45 mph 1015.7mb 54f
7:00am  -   -   -  27 36 mph 1015.7mb 56f
6:50am 15ft 11s 8s 27 38 mph 1015.7mb 56f
6:40am 15ft  -  8s 27 38 mph 1015.7mb 56f
6:30am  -   -   -  27 36 mph 1015.7mb 56f
6:20am  -   -   -  31 38 mph 1015.8mb 56f
6:10am  -   -   -  27 36 mph 1015.8mb 56f
6:00am  -   -   -  27 36 mph 1015.8mb 56f
5:50am 14.5ft 12s 8s 29 36 mph 1015.8mb 56f
5:40am  -   -   -  29 36 mph 1015.9mb 56f
5:30am  -   -   -  25 34 mph 1015.8mb 55f
5:20am  -   -   -  27 38 mph 1015.7mb 55f
5:10am  -   -   -  29 38 mph 1015.6mb 56f
5:00am  -   -   -  27 34 mph 1015.5mb 56f
4:50am 15ft 12s 8s 27 34 mph 1015.5mb 56f
4:40am 15ft  -  8s 22 29 mph 1015.5mb 55f
4:30am  -   -   -  25 31 mph 1015.5mb 55f
4:20am  -   -   -  25 31 mph 1015.7mb 55f
4:10am  -   -   -  25 29 mph 1015.6mb 55f
4:00am  -   -   -  27 43 mph 1015.5mb 55f
3:50am 15ft  -  8s 25 34 mph 1015.5mb 56f
3:40am 15ft 11s  -   -  mph - -
3:30am  -   -   -  27 36 mph 1015.5mb 55f
3:20am  -   -   -  25 31 mph 1015.4mb 56f
3:10am  -   -   -  25 31 mph 1015.4mb 56f
3:00am  -   -   -  25 34 mph 1015.4mb 56f
2:50am 16.5ft 12s 9s 25 34 mph 1015.4mb 56f
2:40am  -   -   -  27 36 mph 1015.3mb 56f
2:30am  -   -   -  25 31 mph 1015.4mb 56f
2:20am  -   -   -  25 34 mph 1015.3mb 56f
2:10am  -   -   -  25 34 mph 1015.3mb 55f
2:00am  -   -   -  25 29 mph 1015.3mb 55f
1:50am 15ft 12s 8s 22 27 mph 1015.4mb 55f
1:40am 15ft  -  8s 22 29 mph 1015.3mb 55f
1:30am  -   -   -  25 29 mph 1015.4mb 55f
1:20am  -   -   -  25 29 mph 1015.4mb 55f
1:10am  -   -   -  25 29 mph 1015.3mb 55f
1:00am  -   -   -  22 27 mph 1015.4mb -
12:50am 14.5ft 10s 8s 22 27 mph 1015.4mb 55f
12:40am  -   -   -  18 25 mph 1015.4mb 53f
12:30am  -   -   -  22 31 mph 1015.6mb 52f
12:20am  -   -   -  22 34 mph 1015.6mb 54f
12:10am  -   -   -  22 27 mph 1015.3mb 54f
12:00am  -   -   -  22 29 mph 1015.3mb 55f
Mon 11/13 11:50pm 13ft 10s 7s 25 34 mph 1015.3mb 54f
11:40pm 13ft  -  7s 27 36 mph 1015.2mb 54f
11:20pm  -   -   -  22 29 mph 1015mb 55f
11:10pm  -   -   -  20 27 mph 1015mb 55f
11:00pm  -   -   -  22 29 mph 1015mb 55f
10:50pm 14ft 9s 7s 25 31 mph 1014.9mb 55f
10:40pm 14ft  -  7s 22 31 mph 1014.9mb 55f
10:30pm  -   -   -  22 29 mph 1014.9mb 55f
10:20pm  -   -   -  22 29 mph 1014.7mb 55f
10:10pm  -   -   -  22 29 mph 1014.6mb 55f
10:00pm  -   -   -  22 29 mph 1014.5mb 55f
9:50pm 14.5ft 10s 7s 22 27 mph 1014.5mb 55f
9:40pm 14.5ft  -  7s 22 29 mph 1014.4mb 55f